Time;durP1;ratioP1;P1;durP2;ratioP2;P2;SDS_P1;SDS_P2;PMS_P1;PMS_P2;Temp;Humidity;BMP_temperature;BMP_pressure;BME280_temperature;BME280_humidity;BME280_pressure;Samples;Min_cycle;Max_cycle;Signal;HPM_P1;HPM_P2
2021/12/21 00:01:09;;;;;;;2.43;1.70;;;;;;;0.34;95.89;94588.59;4972254;28;20222;-60
2021/12/21 00:03:35;;;;;;;2.90;1.40;;;;;;;0.34;95.72;94599.41;4972207;28;20613;-63
2021/12/21 00:06:01;;;;;;;4.20;1.60;;;;;;;0.33;95.80;94597.78;4970932;28;20225;-62
2021/12/21 00:08:26;;;;;;;4.17;1.80;;;;;;;0.55;95.57;94615.91;4972248;28;20566;-63
2021/12/21 00:10:52;;;;;;;2.87;1.53;;;;;;;0.59;95.79;94622.38;4972208;28;20568;-61
2021/12/21 00:13:34;;;;;;;2.27;1.50;;;;;;;0.70;95.55;94619.38;4972014;28;20210;-64
2021/12/21 00:16:26;;;;;;;3.47;2.17;;;;;;;0.57;94.91;94633.34;4987168;28;20225;-60
2021/12/21 00:21:38;;;;;;;2.60;1.57;;;;;;;0.49;95.31;94617.88;4972177;28;20320;-61
2021/12/21 00:24:22;;;;;;;3.13;1.80;;;;;;;0.44;95.25;94620.63;4971976;28;20187;-62
2021/12/21 00:26:48;;;;;;;2.77;1.67;;;;;;;0.53;95.54;94635.19;4972298;28;20207;-60
2021/12/21 00:29:14;;;;;;;2.40;1.60;;;;;;;0.58;96.24;94615.78;4972108;28;20190;-62
2021/12/21 00:31:47;;;;;;;3.20;1.47;;;;;;;0.60;95.62;94630.69;4972390;28;20223;-62
2021/12/21 00:34:13;;;;;;;2.57;1.77;;;;;;;0.58;95.93;94634.97;4975104;28;20217;-61
2021/12/21 00:36:38;;;;;;;3.77;1.93;;;;;;;0.45;96.62;94619.72;4975899;28;20698;-64
2021/12/21 00:39:07;;;;;;;3.50;2.10;;;;;;;0.33;97.12;94612.78;4975629;28;20645;-63
2021/12/21 00:41:34;;;;;;;4.10;2.17;;;;;;;0.35;97.48;94615.22;4975665;28;20210;-60
2021/12/21 00:44:00;;;;;;;3.50;2.00;;;;;;;0.35;97.90;94617.72;4975515;28;20190;-59
2021/12/21 00:46:25;;;;;;;3.87;1.97;;;;;;;0.37;98.11;94625.94;4975515;28;20207;-59
2021/12/21 00:48:54;;;;;;;2.23;1.80;;;;;;;0.47;98.05;94625.47;4975674;28;20639;-65
2021/12/21 00:51:23;;;;;;;2.40;1.80;;;;;;;0.45;96.97;94644.72;4974086;28;20764;-63
2021/12/21 00:53:48;;;;;;;3.13;2.03;;;;;;;0.46;97.37;94633.03;4973851;28;20252;-62
2021/12/21 00:56:14;;;;;;;3.10;1.80;;;;;;;0.46;97.36;94648.03;4975269;28;20250;-64
2021/12/21 00:58:40;;;;;;;3.30;2.00;;;;;;;0.46;96.48;94655.53;4975135;28;20565;-61
2021/12/21 01:01:07;;;;;;;2.47;1.67;;;;;;;0.37;97.70;94631.75;4975267;28;20218;-62
2021/12/21 01:03:34;;;;;;;2.60;1.90;;;;;;;0.35;97.98;94640.19;4973684;28;20183;-62
2021/12/21 01:06:12;;;;;;;2.87;2.10;;;;;;;0.31;98.02;94634.53;4975442;28;20294;-61
2021/12/21 01:10:04;;;;;;;2.70;1.87;;;;;;;0.31;98.25;94639.53;4974406;28;20179;-60
2021/12/21 01:11:43;;;;;;;4.70;2.13;;;;;;;0.34;98.22;94636.91;4970971;28;20245;-61
2021/12/21 01:16:44;;;;;;;2.87;1.80;;;;;;;0.35;97.59;94646.03;4975124;28;20211;-63
2021/12/21 01:19:16;;;;;;;2.90;2.50;;;;;;;0.31;97.08;94653.72;4973561;28;20194;-64
2021/12/21 01:22:13;;;;;;;3.13;2.30;;;;;;;0.28;96.95;94661.38;4975108;28;20254;-60
2021/12/21 01:25:20;;;;;;;4.00;2.07;;;;;;;0.21;96.62;94667.50;4974778;28;20202;-61
2021/12/21 01:30:12;;;;;;;3.63;2.10;;;;;;;0.13;97.45;94649.53;4964114;28;20583;-62
2021/12/21 01:33:05;;;;;;;2.67;2.03;;;;;;;0.14;97.73;94656.19;4973452;28;20230;-63
2021/12/21 01:35:36;;;;;;;4.07;2.23;;;;;;;0.13;97.63;94662.84;4974465;28;20205;-60
2021/12/21 01:41:25;;;;;;;4.07;2.17;;;;;;;0.18;97.22;94660.16;4975181;28;20211;-65
2021/12/21 01:43:41;;;;;;;2.87;2.00;;;;;;;0.14;96.17;94676.16;4974836;28;20199;-62
2021/12/21 01:51:36;;;;;;;1.77;1.67;;;;;;;0.01;95.36;94685.88;4975722;28;20265;-62
2021/12/21 01:54:02;;;;;;;4.63;1.97;;;;;;;0.02;95.71;94680.03;4973626;28;20218;-66
2021/12/21 01:56:28;;;;;;;3.00;1.83;;;;;;;0.02;95.03;94695.00;4974365;28;20219;-62
2021/12/21 01:58:53;;;;;;;4.17;2.97;;;;;;;-0.02;95.80;94676.00;4973000;28;20236;-63
2021/12/21 02:01:21;;;;;;;2.20;1.93;;;;;;;-0.05;95.29;94691.16;4973821;28;20212;-63
2021/12/21 02:03:48;;;;;;;2.60;2.40;;;;;;;-0.04;95.00;94692.75;4974013;28;20209;-63
2021/12/21 02:06:26;;;;;;;2.40;2.10;;;;;;;-0.10;94.74;94696.34;4974669;28;20217;-63
2021/12/21 02:08:53;;;;;;;4.30;2.13;;;;;;;-0.17;95.14;94692.50;4975012;28;20548;-67
2021/12/21 02:11:39;;;;;;;4.43;1.93;;;;;;;-0.17;94.74;94697.50;4973567;28;20760;-63
2021/12/21 02:14:09;;;;;;;3.00;2.10;;;;;;;-0.14;94.10;94704.03;4973474;28;20207;-62
2021/12/21 02:16:59;;;;;;;1.80;1.70;;;;;;;-0.12;94.06;94707.25;4974764;28;20209;-60
2021/12/21 02:19:31;;;;;;;2.20;2.00;;;;;;;-0.13;93.13;94711.47;4973775;28;20177;-62
2021/12/21 02:22:07;;;;;;;1.60;1.50;;;;;;;-0.09;92.77;94722.94;4973601;28;20593;-60
2021/12/21 02:24:54;;;;;;;1.87;1.60;;;;;;;-0.11;92.20;94732.19;4974290;28;20621;-64
2021/12/21 02:27:28;;;;;;;4.87;1.93;;;;;;;-0.16;91.85;94726.56;4973401;28;20622;-64
2021/12/21 02:29:54;;;;;;;2.57;2.00;;;;;;;-0.10;91.86;94726.31;4973793;28;20662;-63
2021/12/21 02:32:22;;;;;;;1.60;1.50;;;;;;;-0.19;91.37;94748.38;4973871;28;20215;-65
2021/12/21 02:34:47;;;;;;;6.43;1.50;;;;;;;-0.21;91.23;94738.47;4973436;28;20214;-62
2021/12/21 02:37:13;;;;;;;3.23;1.70;;;;;;;-0.24;91.66;94736.06;4973811;28;20202;-67
2021/12/21 02:39:39;;;;;;;1.93;1.23;;;;;;;-0.15;91.42;94745.69;4973406;28;20262;-63
2021/12/21 02:42:06;;;;;;;2.97;2.20;;;;;;;-0.27;91.56;94727.91;4972103;28;20271;-62
2021/12/21 02:44:32;;;;;;;3.10;1.40;;;;;;;-0.21;91.29;94742.63;4973221;28;20676;-63
2021/12/21 02:46:58;;;;;;;5.27;1.60;;;;;;;-0.19;90.83;94751.69;5021180;22;20227;-65
2021/12/21 02:49:30;;;;;;;1.40;1.30;;;;;;;-0.23;90.99;94750.19;5032026;28;20261;-62
2021/12/21 02:51:55;;;;;;;2.53;1.53;;;;;;;-0.18;91.12;94742.50;5039489;22;20289;-64
2021/12/21 02:54:27;;;;;;;2.43;1.40;;;;;;;-0.27;92.12;94723.72;5031911;28;20619;-64
2021/12/21 02:56:53;;;;;;;2.40;1.40;;;;;;;-0.34;91.67;94724.84;5031830;28;20649;-62
2021/12/21 02:59:18;;;;;;;4.80;1.90;;;;;;;-0.28;91.77;94724.59;5030525;28;20181;-64
2021/12/21 03:01:44;;;;;;;1.87;1.40;;;;;;;-0.23;92.04;94725.22;5030820;28;20266;-65
2021/12/21 03:04:09;;;;;;;1.43;1.33;;;;;;;-0.29;92.59;94720.50;5014653;28;20185;-61
2021/12/21 03:11:57;;;;;;;2.83;1.53;;;;;;;-0.38;93.58;94710.06;5032629;28;20293;-63
2021/12/21 03:14:24;;;;;;;3.03;1.40;;;;;;;-0.30;93.12;94710.53;5032550;28;20233;-61
2021/12/21 03:16:50;;;;;;;4.50;1.73;;;;;;;-0.36;93.33;94711.63;5032290;28;20236;-65
2021/12/21 03:19:15;;;;;;;3.10;1.57;;;;;;;-0.42;93.86;94704.38;5032610;28;20183;-65
2021/12/21 03:21:41;;;;;;;3.23;1.73;;;;;;;-0.38;94.00;94707.56;5032624;28;20208;-63
2021/12/21 03:24:08;;;;;;;2.67;1.90;;;;;;;-0.34;94.45;94714.84;5032081;28;20655;-62
2021/12/21 03:26:36;;;;;;;1.80;1.60;;;;;;;-0.30;93.62;94713.84;5032451;28;20205;-61
2021/12/21 03:29:07;;;;;;;1.80;1.43;;;;;;;-0.27;93.60;94721.22;5030821;28;20592;-62
2021/12/21 03:31:33;;;;;;;2.40;1.90;;;;;;;-0.28;93.88;94706.28;5030586;28;20289;-65
2021/12/21 03:34:01;;;;;;;1.90;1.70;;;;;;;-0.23;93.49;94720.22;5030619;28;20244;-63
2021/12/21 03:36:26;;;;;;;2.60;1.50;;;;;;;-0.22;93.08;94736.00;5032091;28;20667;-64
2021/12/21 03:39:06;;;;;;;4.33;2.30;;;;;;;-0.19;93.02;94735.88;5032167;28;20192;-60
2021/12/21 03:41:32;;;;;;;3.93;2.13;;;;;;;-0.17;92.67;94739.13;5030699;28;20244;-64
2021/12/21 03:44:01;;;;;;;4.27;2.07;;;;;;;-0.17;91.90;94759.13;5030691;28;20535;-64
2021/12/21 03:46:32;;;;;;;3.67;1.67;;;;;;;-0.12;90.03;94789.69;5030721;28;20213;-65
2021/12/21 03:49:01;;;;;;;1.87;1.47;;;;;;;-0.19;89.96;94780.84;5015592;28;20199;-64
2021/12/21 03:51:27;;;;;;;1.90;1.00;;;;;;;-0.17;88.88;94799.06;5031820;28;20364;-66
2021/12/21 03:53:53;;;;;;;1.57;1.10;;;;;;;-0.13;89.16;94808.88;5030901;28;20238;-65
2021/12/21 03:56:42;;;;;;;1.40;1.30;;;;;;;-0.14;89.15;94817.22;5030688;28;20570;-65
2021/12/21 03:59:06;;;;;;;3.10;1.20;;;;;;;-0.06;87.87;94841.88;5031935;28;20226;-65
2021/12/21 04:01:32;;;;;;;1.30;1.13;;;;;;;-0.11;87.25;94844.59;5032078;28;20275;-64
2021/12/21 04:03:58;;;;;;;1.30;1.20;;;;;;;-0.10;87.19;94840.41;5032668;28;20181;-64
2021/12/21 04:06:27;;;;;;;1.70;1.23;;;;;;;-0.11;86.95;94848.78;5030960;28;20216;-64
2021/12/21 04:08:53;;;;;;;1.27;1.13;;;;;;;-0.08;87.26;94843.63;5035351;28;20344;-63
2021/12/21 04:11:18;;;;;;;1.20;1.10;;;;;;;-0.04;87.22;94845.13;5018558;28;20568;-65
2021/12/21 04:13:44;;;;;;;2.20;1.27;;;;;;;-0.08;86.77;94854.44;5034796;28;20204;-61
2021/12/21 04:16:09;;;;;;;3.57;1.10;;;;;;;-0.10;87.05;94843.72;5036358;28;20666;-63
2021/12/21 04:18:37;;;;;;;1.63;1.10;;;;;;;-0.11;87.18;94839.59;5034962;28;20216;-63
2021/12/21 04:21:05;;;;;;;1.47;1.27;;;;;;;-0.09;86.92;94850.34;5036332;28;20303;-65
2021/12/21 04:23:31;;;;;;;1.80;1.03;;;;;;;-0.13;86.48;94843.84;5036432;28;20173;-66
2021/12/21 04:25:57;;;;;;;1.33;0.90;;;;;;;-0.10;86.60;94845.38;5035828;28;20232;-63
2021/12/21 04:28:23;;;;;;;1.40;1.30;;;;;;;0.00;87.24;94831.69;5035843;28;20296;-62
2021/12/21 04:30:48;;;;;;;1.20;0.80;;;;;;;0.04;86.97;94847.34;5035909;28;20284;-64
2021/12/21 04:33:14;;;;;;;1.10;1.00;;;;;;;-0.04;87.02;94857.63;5034981;28;20234;-65
2021/12/21 04:35:40;;;;;;;0.93;0.87;;;;;;;-0.06;87.50;94847.72;5034703;28;20659;-63
2021/12/21 04:38:19;;;;;;;4.03;1.40;;;;;;;-0.19;87.64;94838.28;5035796;28;20187;-62
2021/12/21 04:40:47;;;;;;;1.83;1.30;;;;;;;-0.21;87.98;94832.53;5034108;28;20677;-64
2021/12/21 04:43:13;;;;;;;1.70;1.10;;;;;;;-0.22;87.58;94834.22;5035063;28;20232;-61
2021/12/21 04:45:39;;;;;;;1.63;1.20;;;;;;;-0.16;87.83;94826.47;5034826;28;20631;-65
2021/12/21 04:48:05;;;;;;;1.60;1.10;;;;;;;-0.10;86.93;94850.38;5035143;28;20253;-66
2021/12/21 04:50:31;;;;;;;1.10;1.00;;;;;;;-0.15;86.07;94860.59;5035509;28;20205;-64
2021/12/21 04:52:59;;;;;;;1.33;0.80;;;;;;;-0.09;86.06;94870.31;5035286;28;20193;-63
2021/12/21 04:55:25;;;;;;;1.37;1.20;;;;;;;-0.17;86.54;94862.34;5051030;22;20243;-60
2021/12/21 04:57:50;;;;;;;0.87;0.87;;;;;;;-0.30;86.20;94871.16;5033769;28;20184;-65
2021/12/21 05:00:16;;;;;;;2.27;0.87;;;;;;;-0.31;85.55;94874.56;5034674;28;20296;-64
2021/12/21 05:02:42;;;;;;;2.00;1.23;;;;;;;-0.28;85.22;94879.41;5035705;28;20191;-64
2021/12/21 05:05:08;;;;;;;2.53;1.60;;;;;;;-0.35;85.69;94875.56;5035174;28;20180;-65
2021/12/21 05:07:36;;;;;;;1.47;1.10;;;;;;;-0.49;86.51;94839.50;5034930;28;20216;-63
2021/12/21 05:10:04;;;;;;;2.17;1.40;;;;;;;-0.40;86.11;94857.41;5023416;23;20252;-62
2021/12/21 05:12:30;;;;;;;1.27;1.17;;;;;;;-0.37;86.47;94856.50;5014870;28;20217;-65
2021/12/21 05:14:56;;;;;;;1.33;1.23;;;;;;;-0.38;86.22;94857.34;5014281;28;20708;-65
2021/12/21 05:17:22;;;;;;;1.27;1.17;;;;;;;-0.42;86.32;94859.16;5014287;28;20206;-61
2021/12/21 05:19:48;;;;;;;1.80;1.20;;;;;;;-0.38;86.50;94864.84;5014446;28;20196;-63
2021/12/21 05:22:15;;;;;;;1.43;1.33;;;;;;;-0.46;86.99;94854.34;4996882;28;20205;-60
2021/12/21 05:24:42;;;;;;;4.47;1.40;;;;;;;-0.44;86.94;94860.91;5015075;28;20200;-61
2021/12/21 05:27:08;;;;;;;2.17;1.43;;;;;;;-0.40;87.15;94852.44;5014191;28;20196;-64
2021/12/21 05:29:35;;;;;;;1.20;1.10;;;;;;;-0.45;86.82;94859.31;5014781;28;20696;-60
2021/12/21 05:32:00;;;;;;;1.23;0.93;;;;;;;-0.48;87.34;94851.09;5013828;28;20197;-62
2021/12/21 05:34:27;;;;;;;3.47;1.33;;;;;;;-0.44;86.66;94867.59;5014984;28;20221;-64
2021/12/21 05:36:52;;;;;;;1.33;1.10;;;;;;;-0.49;87.21;94856.97;5014503;28;20206;-65
2021/12/21 05:39:22;;;;;;;2.33;1.23;;;;;;;-0.49;87.42;94852.81;5014699;28;20209;-63
2021/12/21 05:41:55;;;;;;;3.37;1.27;;;;;;;-0.47;87.30;94863.53;5012720;28;20202;-64
2021/12/21 05:44:23;;;;;;;1.30;1.10;;;;;;;-0.45;87.27;94871.78;5013200;28;20195;-63
2021/12/21 05:46:51;;;;;;;2.87;1.50;;;;;;;-0.46;87.39;94882.63;5014100;28;20202;-60
2021/12/21 05:49:17;;;;;;;2.20;1.30;;;;;;;-0.49;87.36;94882.75;5014415;28;20184;-61
2021/12/21 05:51:43;;;;;;;5.13;1.63;;;;;;;-0.43;87.10;94897.50;5013928;28;20740;-62
2021/12/21 05:54:09;;;;;;;1.50;1.40;;;;;;;-0.43;87.30;94889.19;5014644;28;20228;-62
2021/12/21 05:56:35;;;;;;;0.87;0.87;;;;;;;-0.34;87.55;94896.31;5013933;28;20367;-60
2021/12/21 05:59:02;;;;;;;1.30;1.20;;;;;;;-0.38;87.17;94882.31;5013580;28;20204;-64
2021/12/21 06:01:29;;;;;;;1.87;1.43;;;;;;;-0.42;87.56;94879.13;5013811;28;20213;-62
2021/12/21 06:03:55;;;;;;;1.83;1.10;;;;;;;-0.46;87.91;94882.63;5012515;28;20678;-61
2021/12/21 06:06:20;;;;;;;3.00;1.80;;;;;;;-0.50;88.72;94860.34;5012071;28;20242;-64
2021/12/21 06:08:47;;;;;;;1.63;1.50;;;;;;;-0.47;89.28;94861.03;5012081;28;20264;-61
2021/12/21 06:11:14;;;;;;;1.43;1.33;;;;;;;-0.47;89.03;94856.06;5012065;28;20208;-63
2021/12/21 06:16:25;;;;;;;3.70;2.00;;;;;;;-0.51;90.23;94857.03;5013696;28;20259;-60
2021/12/21 06:26:45;;;;;;;4.17;1.90;;;;;;;-0.43;91.79;94842.56;5013661;28;20205;-64
2021/12/21 06:29:11;;;;;;;3.73;2.17;;;;;;;-0.28;91.42;94858.63;5013838;28;20545;-61
2021/12/21 06:31:39;;;;;;;3.17;2.00;;;;;;;-0.34;91.60;94859.69;5011192;28;20215;-62
2021/12/21 06:34:04;;;;;;;5.17;2.03;;;;;;;-0.31;91.10;94874.56;5013233;28;20221;-64
2021/12/21 06:36:30;;;;;;;2.93;1.70;;;;;;;-0.25;90.67;94876.81;5013116;28;20197;-64
2021/12/21 06:38:55;;;;;;;7.60;1.93;;;;;;;-0.27;91.09;94878.56;5013440;28;20685;-62
2021/12/21 06:41:21;;;;;;;1.90;1.30;;;;;;;-0.26;90.53;94885.16;5013015;28;20205;-62
2021/12/21 06:43:47;;;;;;;2.87;2.00;;;;;;;-0.11;91.03;94889.56;5013061;28;20252;-64
2021/12/21 06:52:01;;;;;;;3.00;1.60;;;;;;;-0.21;91.22;94895.78;5012713;28;20239;-61
2021/12/21 06:54:28;;;;;;;4.27;1.30;;;;;;;-0.37;91.94;94893.94;5012550;28;20707;-59
2021/12/21 06:56:54;;;;;;;2.17;1.60;;;;;;;-0.40;92.79;94879.91;5012422;28;20234;-63
2021/12/21 06:59:19;;;;;;;2.40;1.67;;;;;;;-0.36;92.93;94863.91;5011573;28;20625;-63
2021/12/21 07:01:48;;;;;;;3.30;1.77;;;;;;;-0.36;93.23;94873.91;5012051;28;20236;-64
2021/12/21 07:04:17;;;;;;;4.37;1.70;;;;;;;-0.25;92.92;94883.47;5012982;28;20199;-65
2021/12/21 07:06:45;;;;;;;2.40;1.50;;;;;;;-0.22;92.51;94896.66;5012933;28;20228;-62
2021/12/21 07:09:20;;;;;;;1.43;1.30;;;;;;;-0.19;92.63;94898.22;5011156;28;20201;-61
2021/12/21 07:11:53;;;;;;;1.30;1.17;;;;;;;-0.23;92.14;94909.22;5012323;28;20194;-62
2021/12/21 07:19:49;;;;;;;2.40;1.60;;;;;;;-0.25;90.65;94963.41;5013053;28;20612;-65
2021/12/21 07:22:15;;;;;;;2.43;1.53;;;;;;;-0.36;91.46;94938.00;5011399;28;20240;-61
2021/12/21 07:24:41;;;;;;;2.67;1.70;;;;;;;-0.30;91.65;94938.59;5011849;28;20602;-63
2021/12/21 07:27:06;;;;;;;3.40;1.67;;;;;;;-0.29;91.74;94946.91;5010626;28;20202;-63
2021/12/21 07:29:32;;;;;;;4.20;1.93;;;;;;;-0.31;91.42;94951.97;5011060;28;20190;-62
2021/12/21 07:31:58;;;;;;;2.67;1.90;;;;;;;-0.36;91.08;94948.00;5012110;28;20707;-60
2021/12/21 07:34:23;;;;;;;2.30;1.63;;;;;;;-0.38;90.91;94950.56;5012412;28;20592;-65
2021/12/21 07:36:49;;;;;;;2.93;1.53;;;;;;;-0.34;90.49;94971.22;5011899;28;20872;-62
2021/12/21 07:39:17;;;;;;;1.40;1.30;;;;;;;-0.24;89.99;94973.31;5012783;28;20245;-62
2021/12/21 07:41:44;;;;;;;2.57;1.47;;;;;;;-0.10;89.44;94982.78;5011313;28;20271;-66
2021/12/21 07:44:09;;;;;;;1.93;1.63;;;;;;;-0.15;88.96;95000.47;5011458;28;20237;-63
2021/12/21 07:46:35;;;;;;;1.60;1.50;;;;;;;-0.31;88.44;95006.91;5011787;28;20669;-63
2021/12/21 07:49:01;;;;;;;2.23;1.10;;;;;;;-0.26;88.36;95000.03;5012167;28;20191;-63
2021/12/21 07:51:28;;;;;;;1.80;1.37;;;;;;;0.03;88.33;95006.44;5010422;28;20676;-62
2021/12/21 07:53:53;;;;;;;2.87;1.30;;;;;;;0.13;87.98;95036.88;5012512;28;20241;-65
2021/12/21 07:56:19;;;;;;;5.13;1.10;;;;;;;0.05;88.55;95004.69;5011750;28;20277;-61
2021/12/21 07:58:45;;;;;;;1.83;1.40;;;;;;;0.28;88.19;95018.78;5012012;28;20620;-62
2021/12/21 08:01:11;;;;;;;1.90;1.70;;;;;;;0.51;86.98;95041.19;5010329;28;20272;-65
2021/12/21 08:03:37;;;;;;;3.53;1.50;;;;;;;0.67;86.01;95062.19;5012050;28;20257;-65
2021/12/21 08:06:06;;;;;;;2.33;1.43;;;;;;;0.85;85.95;95067.28;5011483;28;20202;-64
2021/12/21 08:08:33;;;;;;;2.33;1.50;;;;;;;1.02;84.37;95104.16;5010088;28;20708;-61
2021/12/21 08:13:38;;;;;;;2.70;1.43;;;;;;;1.18;83.25;95110.16;5011757;28;20677;-64
2021/12/21 08:16:05;;;;;;;2.17;1.63;;;;;;;0.76;84.92;95085.19;5011430;28;20206;-64
2021/12/21 08:18:31;;;;;;;3.37;1.70;;;;;;;0.66;85.62;95051.41;5010480;28;20205;-61
2021/12/21 08:20:56;;;;;;;3.03;1.60;;;;;;;0.88;85.40;95051.34;5010024;28;20679;-64
2021/12/21 08:23:22;;;;;;;2.97;1.73;;;;;;;1.13;83.87;95104.50;5011819;28;20206;-65
2021/12/21 08:25:47;;;;;;;1.63;1.40;;;;;;;1.08;83.21;95101.38;5011315;28;20222;-62
2021/12/21 08:28:13;;;;;;;2.50;1.37;;;;;;;1.07;83.86;95097.25;5011637;28;20190;-61
2021/12/21 08:30:40;;;;;;;1.37;1.27;;;;;;;1.29;82.89;95123.06;5011783;28;20225;-64
2021/12/21 08:33:07;;;;;;;2.73;1.30;;;;;;;0.83;83.58;95095.75;5011375;28;20187;-63
2021/12/21 08:35:32;;;;;;;1.30;1.00;;;;;;;0.89;83.52;95114.72;5011366;28;20306;-63
2021/12/21 08:38:07;;;;;;;1.43;1.13;;;;;;;1.12;82.36;95130.44;5011537;28;20279;-61
2021/12/21 08:40:39;;;;;;;5.80;1.50;;;;;;;1.03;83.39;95108.25;5011293;28;20240;-61
2021/12/21 08:43:11;;;;;;;4.40;2.20;;;;;;;0.89;83.27;95110.50;5011676;28;20625;-62
2021/12/21 08:45:38;;;;;;;1.97;1.73;;;;;;;1.05;83.36;95120.72;5011327;28;20285;-63
2021/12/21 08:48:05;;;;;;;2.57;1.40;;;;;;;1.35;83.35;95117.78;5011177;28;20634;-65
2021/12/21 08:50:32;;;;;;;3.30;1.30;;;;;;;1.73;79.57;95188.81;5010049;28;20684;-65
2021/12/21 08:52:58;;;;;;;1.43;1.27;;;;;;;1.91;79.54;95185.53;5011090;28;20195;-65
2021/12/21 08:55:24;;;;;;;2.77;1.40;;;;;;;1.83;78.65;95191.75;5014777;28;20194;-66
2021/12/21 08:57:49;;;;;;;1.57;1.40;;;;;;;1.53;74.20;95164.59;5015121;28;20190;-64
2021/12/21 09:00:16;;;;;;;1.70;1.23;;;;;;;1.43;73.40;95153.34;5014972;28;20644;-61
2021/12/21 09:02:41;;;;;;;4.50;1.70;;;;;;;1.47;73.97;95149.00;5014748;28;20256;-65
2021/12/21 09:05:14;;;;;;;5.47;2.27;;;;;;;1.52;72.80;95157.94;5014831;28;20179;-64
2021/12/21 09:07:43;;;;;;;4.53;2.87;;;;;;;1.41;74.13;95154.28;5014993;28;20205;-62
2021/12/21 09:10:11;;;;;;;2.10;1.50;;;;;;;1.10;69.71;95172.22;5026254;22;20236;-62
2021/12/21 09:12:37;;;;;;;4.80;1.60;;;;;;;1.27;69.44;95177.34;5014502;28;20214;-64
2021/12/21 09:15:03;;;;;;;3.20;1.63;;;;;;;1.68;67.78;95209.03;5014387;28;20253;-64
2021/12/21 09:17:29;;;;;;;3.27;1.67;;;;;;;1.79;66.11;95217.81;5014296;28;20198;-63
2021/12/21 09:19:58;;;;;;;2.07;1.77;;;;;;;1.50;67.18;95207.31;5014308;28;20648;-61
2021/12/21 09:22:24;;;;;;;5.00;1.50;;;;;;;1.58;64.75;95247.06;5014807;28;20203;-60
2021/12/21 09:24:50;;;;;;;2.53;1.00;;;;;;;1.66;63.82;95252.56;5014285;28;20264;-64
2021/12/21 09:27:16;;;;;;;2.37;1.67;;;;;;;1.25;65.59;95221.66;5013186;28;20595;-64
2021/12/21 09:29:42;;;;;;;1.20;1.10;;;;;;;0.87;66.06;95202.34;5014275;28;20217;-60
2021/12/21 09:32:13;;;;;;;3.10;1.47;;;;;;;1.16;65.89;95212.03;5012775;28;20244;-63
2021/12/21 09:34:40;;;;;;;1.40;1.30;;;;;;;1.60;63.87;95245.31;5014341;28;20283;-64
2021/12/21 09:37:06;;;;;;;1.23;0.90;;;;;;;1.62;63.85;95251.06;5012710;28;20651;-62
2021/12/21 09:39:31;;;;;;;1.70;1.13;;;;;;;1.28;65.39;95211.53;5012732;28;20301;-63
2021/12/21 09:41:57;;;;;;;2.17;1.63;;;;;;;1.10;66.71;95184.75;5013872;28;20676;-64
2021/12/21 09:44:23;;;;;;;1.67;1.33;;;;;;;1.43;66.46;95192.59;5013925;28;20237;-63
2021/12/21 09:46:48;;;;;;;2.33;1.50;;;;;;;1.46;66.98;95182.44;5012425;28;20206;-61
2021/12/21 09:49:15;;;;;;;2.10;1.53;;;;;;;1.35;67.90;95149.53;5013569;28;20175;-64
2021/12/21 09:51:41;;;;;;;3.40;1.77;;;;;;;0.98;69.64;95127.66;5013723;28;20197;-65
2021/12/21 09:54:08;;;;;;;1.40;1.10;;;;;;;0.84;69.31;95132.41;5013653;28;20595;-63
2021/12/21 09:56:34;;;;;;;2.37;1.23;;;;;;;0.57;70.67;95118.47;5013525;28;20198;-64
2021/12/21 09:59:01;;;;;;;1.60;1.37;;;;;;;0.41;70.79;95097.41;5013837;28;20185;-64
2021/12/21 10:01:26;;;;;;;1.63;1.47;;;;;;;0.81;70.57;95117.50;5013904;28;20281;-62
2021/12/21 10:03:52;;;;;;;2.77;1.50;;;;;;;1.32;68.17;95164.66;5013593;28;20262;-65
2021/12/21 10:06:17;;;;;;;5.17;2.90;;;;;;;1.62;66.71;95204.28;5011424;28;20214;-64
2021/12/21 10:08:43;;;;;;;48.80;18.97;;;;;;;2.16;64.73;95243.75;5013338;28;20182;-64
2021/12/21 10:11:21;;;;;;;2.43;2.20;;;;;;;2.16;64.66;95242.97;5012111;28;20670;-67
2021/12/21 10:13:47;;;;;;;9.07;3.10;;;;;;;2.49;63.26;95261.56;5013539;28;20282;-62
2021/12/21 10:16:19;;;;;;;1.70;1.50;;;;;;;2.36;61.88;95266.28;5013100;28;20214;-66
2021/12/21 10:18:45;;;;;;;2.80;1.47;;;;;;;2.64;61.30;95286.00;5012171;28;20284;-65
2021/12/21 10:21:14;;;;;;;2.70;1.40;;;;;;;2.94;60.39;95292.16;5013236;28;20685;-65
2021/12/21 10:23:43;;;;;;;1.80;1.60;;;;;;;3.00;59.42;95306.94;5013239;28;20175;-64
2021/12/21 10:26:13;;;;;;;5.17;1.67;;;;;;;3.63;58.23;95302.34;5013408;28;20207;-63
2021/12/21 10:28:45;;;;;;;1.53;1.43;;;;;;;3.55;58.52;95294.34;5013094;28;20171;-63
2021/12/21 10:31:21;;;;;;;2.70;1.40;;;;;;;3.08;57.67;95294.84;5012953;28;20202;-63
2021/12/21 10:33:47;;;;;;;0.90;0.90;;;;;;;2.33;60.85;95228.00;5012847;28;20216;-63
2021/12/21 10:36:14;;;;;;;2.00;1.23;;;;;;;1.65;62.93;95174.13;5011601;28;20203;-64
2021/12/21 10:38:49;;;;;;;3.70;1.90;;;;;;;1.37;65.40;95115.22;5011907;28;20218;-63
2021/12/21 10:41:38;;;;;;;2.47;1.43;;;;;;;1.75;64.41;95151.16;5013497;28;20220;-65
2021/12/21 10:44:12;;;;;;;2.13;1.53;;;;;;;2.29;62.76;95167.13;5013383;28;20198;-61
2021/12/21 10:46:41;;;;;;;2.50;1.67;;;;;;;2.46;62.95;95179.72;5012890;28;20293;-64
2021/12/21 10:49:07;;;;;;;2.43;1.80;;;;;;;2.68;62.45;95191.31;5012856;28;20187;-64
2021/12/21 10:51:32;;;;;;;3.33;1.90;;;;;;;2.63;62.59;95188.19;5012600;28;20242;-60
2021/12/21 10:53:58;;;;;;;2.23;1.20;;;;;;;2.31;61.16;95213.00;5012642;28;20207;-64
2021/12/21 10:56:23;;;;;;;2.10;1.40;;;;;;;2.53;62.59;95180.25;5012919;28;20210;-64
2021/12/21 10:58:49;;;;;;;1.97;1.27;;;;;;;3.05;60.75;95214.63;5012487;28;20179;-62
2021/12/21 11:01:22;;;;;;;2.90;1.47;;;;;;;3.02;60.26;95214.78;5012901;28;20309;-65
2021/12/21 11:03:52;;;;;;;1.53;1.37;;;;;;;3.74;58.53;95269.94;5012636;28;20250;-65
2021/12/21 11:06:26;;;;;;;2.00;1.53;;;;;;;2.81;60.04;95220.78;5012431;28;20221;-65
2021/12/21 11:08:54;;;;;;;1.57;1.30;;;;;;;2.84;58.55;95258.31;5012466;28;20175;-63
2021/12/21 11:11:37;;;;;;;2.60;1.60;;;;;;;2.96;58.19;95252.72;5011160;28;20228;-63
2021/12/21 11:14:08;;;;;;;2.33;1.40;;;;;;;2.27;59.87;95225.75;5011642;28;20211;-66
2021/12/21 11:16:42;;;;;;;2.83;1.20;;;;;;;2.38;59.75;95214.34;5011830;28;20432;-64
2021/12/21 11:19:10;;;;;;;2.17;1.30;;;;;;;2.65;59.65;95244.94;5010533;28;20228;-64
2021/12/21 11:21:36;;;;;;;1.63;1.17;;;;;;;2.28;59.30;95243.22;5012053;28;20198;-65
2021/12/21 11:24:08;;;;;;;1.70;1.20;;;;;;;1.85;61.40;95182.47;5012277;28;20186;-63
2021/12/21 11:26:34;;;;;;;1.40;1.30;;;;;;;1.72;63.15;95133.78;5012233;28;20621;-65
2021/12/21 11:29:04;;;;;;;4.00;1.60;;;;;;;2.35;61.73;95198.63;5012383;28;20645;-65
2021/12/21 11:31:30;;;;;;;2.80;1.90;;;;;;;2.87;59.75;95224.72;5012274;28;20680;-62
2021/12/21 11:33:59;;;;;;;6.77;2.00;;;;;;;3.27;58.44;95278.03;5012065;28;20203;-61
2021/12/21 11:39:13;;;;;;;1.37;1.23;;;;;;;2.69;57.65;95270.75;5012014;28;20317;-64
2021/12/21 11:41:44;;;;;;;1.80;1.33;;;;;;;1.68;57.06;95284.22;5012072;28;20280;-63
2021/12/21 11:44:21;;;;;;;2.47;1.30;;;;;;;1.24;58.88;95241.78;5011966;28;20171;-63
2021/12/21 11:46:52;;;;;;;2.37;1.27;;;;;;;1.50;57.77;95249.88;5011915;28;20202;-63
2021/12/21 11:49:48;;;;;;;7.07;1.57;;;;;;;1.77;57.48;95269.69;5011877;28;20163;-62
2021/12/21 11:52:20;;;;;;;1.10;1.00;;;;;;;1.90;55.23;95313.44;5011765;28;20296;-64
2021/12/21 11:54:57;;;;;;;1.40;1.30;;;;;;;1.84;55.29;95301.94;5012084;28;20360;-64
2021/12/21 11:57:37;;;;;;;1.60;1.50;;;;;;;2.28;54.75;95320.19;5011707;28;20711;-64
2021/12/21 12:00:08;;;;;;;1.43;1.03;;;;;;;2.41;53.86;95317.09;5011918;28;20175;-63
2021/12/21 12:02:34;;;;;;;2.67;1.87;;;;;;;2.94;52.82;95336.53;5010365;28;20198;-65
2021/12/21 12:05:00;;;;;;;3.07;1.50;;;;;;;3.03;52.53;95341.94;5010568;28;20218;-61
2021/12/21 12:07:25;;;;;;;2.37;1.50;;;;;;;3.02;51.43;95357.09;5012036;28;20242;-64
2021/12/21 12:10:14;;;;;;;2.17;1.60;;;;;;;2.98;51.63;95343.88;5010349;28;20197;-64
2021/12/21 12:12:40;;;;;;;2.10;1.23;;;;;;;2.27;53.94;95261.69;5011812;28;20714;-65
2021/12/21 12:15:08;;;;;;;2.13;1.43;;;;;;;2.05;54.55;95245.91;5011407;28;20641;-60
2021/12/21 12:17:47;;;;;;;1.00;0.90;;;;;;;1.96;54.87;95223.72;5011659;28;20206;-65
2021/12/21 12:20:14;;;;;;;1.57;1.47;;;;;;;2.13;55.31;95225.53;5011749;28;20186;-63
2021/12/21 12:22:42;;;;;;;1.60;1.50;;;;;;;1.91;56.94;95188.03;5011691;28;20190;-65
2021/12/21 12:25:17;;;;;;;2.17;1.30;;;;;;;1.76;57.22;95181.16;5011727;28;20187;-61
2021/12/21 12:27:46;;;;;;;6.63;1.50;;;;;;;1.61;57.17;95182.63;5011642;28;20170;-65
2021/12/21 12:30:16;;;;;;;5.33;1.80;;;;;;;1.67;56.81;95191.59;5013421;28;20187;-61
2021/12/21 12:32:51;;;;;;;1.63;1.40;;;;;;;1.31;56.76;95193.09;5041464;22;20237;-64
2021/12/21 12:35:21;;;;;;;2.47;1.63;;;;;;;1.24;57.02;95195.03;5034841;28;20292;-63